Aeroporto :
LOGIN :

Iscrizione | Disclaimer

   EN    FR    IT 

 










Sommario :    VFR   VFR Marginale   IFR   IFR Intensivo   IFR Molto Intensivo
Visibilità : 
Base nubi : 
>= 8 km
>= 3000ft
5 / 8 km
1000 / 3000 ft
1500m / 5 km
500 / 1000 ft
800 / 1500m
200 / 500 ft
< 800m
< 200 ft
Simboli :   Temporali  Nebbia  Neve Forte  Precipitazioni Forti  Vento > 20 kt
SIGMETs :   Varie  Temporali  Ghiacco  Turbolenza  Onda orograficha  Ceneri Vulcaniche






- Altitudine del aeroporto : 1504 ft
- Codice IATA : PNA


LEPP - Noain Pamplona

ULTIMO METAR :
  • 290900Z 33013KT 9999 FEW020 10/03 Q1020

METARs OBSOLETI :
  • 290830Z 32010KT 290V350 9999 FEW020 09/03 Q1020
  • 290800Z 32010KT 290V350 9999 FEW020 08/03 Q1020
  • 290730Z 32005KT 300V020 CAVOK 07/03 Q1020
  • 290700Z 00000KT CAVOK 06/03 Q1020
  • 290630Z 00000KT CAVOK 04/02 Q1020

TAF TAF LEPP
Valido dal 29 a 09 ore il 30 a 09 ore UTC


290800Z 2909/3009 34009KT 9999 SCT025 TX14/2914Z TNM00/3006Z
TEMPO 2911/3009 34016G28KT
PROB30
TEMPO 2923/3009 -SN



MetMap, La meteo Aeronautica in un colpo d'occhio ! - Copyright ORBIFLY Dicembre 2007 - Disclaimer

ORBIFLY MET'MAP TEAM :

Programmazione e sviluppo : Alexandra Zaïnal
Concezione : Baudouin d'Aumeries
Aiuto per la programmazione : Marc-Olivier Méhu
Supporto tecnico e logistico : Manuel Goepfert
Aiuto per la traduzione : Arnaldo La Scala

Contatto : metmap@orbifly.com




FONTI E CREDITI :

   NOAA